• Join FlightAware (Why Join?)
  • Login
  • US Flag 
Rudolph Flight #1: Arrived! 
03:00AM EST


 

Airport Tracker/Info


-or-


 

Live Flight TrackerFlight Track Log ✈ SAS1874 ✈ 14-Jul-2013 ✈ EKCH / CPH - ENZV / SVG

Flight Track Log - Related Links

Times and Time Zones

All times are in EDT time to prevent confusion due to time zone crossing. See the SAS1874 flight status page for this flight to view local times or setup timezone preferences in your user account.

Time Position Orientation Groundspeed Altitude Reporting Facility
EDT Latitude Longitude Course Direction KTS MPH feet Rate Location/Type
11:56AM 55.9040 12.1170 314° West  Level Estimated
11:57AM 55.9751 11.9810 313° West  Level Estimated
11:58AM 56.0461 11.8446 313° West  Level Estimated
11:59AM 56.1169 11.7076 313° West  Level Estimated
12:00PM 56.1876 11.5701 313° West  Level Estimated
12:01PM 56.2582 11.4321 313° West  Level Estimated
12:02PM 56.3285 11.2936 313° West  Level Estimated
12:03PM 56.3988 11.1546 312° West  Level Estimated
12:04PM 56.4688 11.0151 312° West  Level Estimated
12:05PM 56.5388 10.8750 312° West  Level Estimated
12:06PM 56.6085 10.7345 312° West  Level Estimated
12:07PM 56.6781 10.5934 312° West  Level Estimated
12:08PM 56.7476 10.4518 312° West  Level Estimated
12:09PM 56.8168 10.3097 312° West  Level Estimated
12:10PM 56.8859 10.1670 312° West  Level Estimated
12:11PM 56.9549 10.0239 311° West  Level Estimated
12:12PM 57.0237 9.8801 311° West  Level Estimated
12:13PM 57.0923 9.7359 311° West  Level Estimated
12:14PM 57.1608 9.5911 311° West  Level Estimated
12:15PM 57.2290 9.4458 311° West  Level Estimated
12:16PM 57.2972 9.3000 311° West  Level Estimated
12:17PM 57.3651 9.1536 311° West  Level Estimated
12:18PM 57.4329 9.0066 311° West  Level Estimated
12:19PM 57.5005 8.8592 311° West  Level Estimated
12:20PM 57.5679 8.7112 310° West  Level Estimated
12:21PM 57.6352 8.5626 310° West  Level Estimated
12:22PM 57.7023 8.4135 310° West  Level Estimated
12:23PM 57.7692 8.2638 310° West  Level Estimated
12:24PM 57.8359 8.1136 310° West  Level Estimated
12:25PM 57.9025 7.9628 310° West  Level Estimated
12:26PM 57.9688 7.8114 310° West  Level Estimated
12:27PM 58.0350 7.6595 309° West  Level Estimated
12:28PM 58.1011 7.5071 309° West  Level Estimated
12:29PM 58.1669 7.3540 309° West  Level Estimated
12:30PM 58.2325 7.2004 309° West  Level Estimated
12:31PM 58.2980 7.0462 309° West  Level Estimated
12:32PM 58.3633 6.8915 309° West  Level Estimated
12:33PM 58.4284 6.7362 309° West  Level Estimated
12:34PM 58.4933 6.5803 309° West  Level Estimated
12:35PM 58.5580 6.4239 308° West  Level Estimated
12:36PM 58.6225 6.2668 308° West  Level Estimated
12:37PM 58.6868 6.1092 308° West  Level Estimated
12:38PM 58.7509 5.9510 308° West  Level Estimated
12:39PM 58.8149 5.7922 308° West  Level Estimated
12:40PM 58.8767 5.6378 308° West  Level Estimated
12:41PM 58.8767 5.6378 199° South  Level Estimated
12:42PM 58.8767 5.6378 199° South  Level Estimated
12:43PM 58.8767 5.6378 199° South  Level Estimated
12:44PM 58.8767 5.6378 199° South  Level Estimated
12:45PM 58.8767 5.6378 199° South  Level Estimated
12:46PM 58.8767 5.6378 199° South  Level Estimated
12:47PM 58.8767 5.6378 199° South  Level Estimated
12:48PM 58.8767 5.6378 199° South  Level Estimated
12:49PM 58.8767 5.6378 199° South  Level Estimated
12:50PM 58.8767 5.6378 199° South  Level Estimated
12:51PM 58.8767 5.6378 199° South  Level Estimated
12:52PM 58.8767 5.6378 199° South  Level Estimated
12:53PM 58.8767 5.6378 199° South  Level Estimated
12:54PM 58.8767 5.6378 199° South  Level Estimated
12:55PM 58.8767 5.6378 199° South  Level Estimated
12:56PM 58.8767 5.6378 199° South  Level Estimated